createdAt,value
2023-02-21T00:01:16.310Z,3.35
2023-02-21T00:04:07.007Z,5.00
2023-02-21T00:06:57.209Z,1.38
2023-02-21T00:09:47.146Z,2.53
2023-02-21T00:12:37.316Z,2.33
2023-02-21T00:15:29.950Z,3.60
2023-02-21T00:18:20.657Z,2.00
2023-02-21T00:21:12.043Z,1.65
2023-02-21T00:24:02.772Z,3.45
2023-02-21T00:26:53.362Z,1.85
2023-02-21T00:29:44.002Z,2.35
2023-02-21T00:32:36.260Z,1.95
2023-02-21T00:35:26.858Z,1.75
2023-02-21T00:38:17.181Z,2.42
2023-02-21T00:41:07.971Z,2.67
2023-02-21T00:43:58.326Z,2.10
2023-02-21T00:46:49.003Z,1.52
2023-02-21T00:49:41.437Z,2.53
2023-02-21T00:52:32.138Z,3.05
2023-02-21T00:55:23.406Z,2.55
2023-02-21T00:58:14.191Z,2.45
2023-02-21T01:01:04.719Z,3.13
2023-02-21T01:03:55.369Z,1.92
2023-02-21T01:06:47.918Z,2.75
2023-02-21T01:09:38.560Z,2.00
2023-02-21T01:12:28.941Z,1.83
2023-02-21T01:15:19.680Z,3.13
2023-02-21T01:18:10.040Z,1.52
2023-02-21T01:21:00.834Z,2.35
2023-02-21T01:23:53.620Z,2.00
2023-02-21T01:26:44.217Z,2.97
2023-02-21T01:29:34.742Z,3.47
2023-02-21T01:32:24.993Z,3.85
2023-02-21T01:35:15.162Z,3.97
2023-02-21T01:38:05.179Z,4.85
2023-02-21T01:40:58.237Z,1.85
2023-02-21T01:43:48.637Z,1.95
2023-02-21T01:46:40.101Z,2.33
2023-02-21T01:49:35.106Z,6.60
2023-02-21T01:52:25.711Z,2.65
2023-02-21T01:55:16.439Z,3.97
2023-02-21T01:58:09.974Z,1.33
2023-02-21T02:01:00.821Z,5.95
2023-02-21T02:03:54.216Z,1.75
2023-02-21T02:06:45.092Z,4.22
2023-02-21T02:09:37.087Z,1.83
2023-02-21T02:15:25.815Z,1.35
2023-02-21T02:18:14.020Z,2.22
2023-02-21T02:21:31.339Z,1.98
2023-02-21T02:24:33.972Z,3.53
2023-02-21T02:27:29.908Z,2.05
2023-02-21T02:30:41.152Z,4.93
2023-02-21T02:34:01.593Z,1.58
2023-02-21T02:36:41.958Z,1.60
2023-02-21T02:39:25.743Z,2.90
2023-02-21T02:42:10.371Z,3.50
2023-02-21T02:44:49.879Z,5.47
2023-02-21T02:47:26.854Z,2.60
2023-02-21T02:50:01.758Z,4.07
2023-02-21T02:52:36.668Z,2.95
2023-02-21T02:55:29.797Z,2.70
2023-02-21T02:58:04.532Z,3.22
2023-02-21T03:00:40.940Z,2.33
2023-02-21T03:03:36.056Z,2.63
2023-02-21T03:06:22.584Z,2.88
2023-02-21T03:09:04.132Z,2.85
2023-02-21T03:11:44.221Z,2.25
2023-02-21T03:14:21.603Z,2.05
2023-02-21T03:16:58.984Z,2.13
2023-02-21T03:19:35.921Z,1.88
2023-02-21T03:22:11.640Z,2.35
2023-02-21T03:24:49.381Z,2.10
2023-02-21T03:27:24.286Z,4.68
2023-02-21T03:30:01.786Z,1.48
2023-02-21T03:32:36.212Z,1.55
2023-02-21T03:35:09.451Z,2.20
2023-02-21T03:37:43.946Z,2.17
2023-02-21T03:40:23.864Z,5.60
2023-02-21T03:42:58.873Z,3.20
2023-02-21T03:45:31.785Z,2.50
2023-02-21T03:48:05.378Z,3.92
2023-02-21T03:50:38.310Z,1.75
2023-02-21T03:53:11.656Z,3.13
2023-02-21T03:55:46.039Z,3.03
2023-02-21T03:58:19.219Z,4.45
2023-02-21T04:00:53.956Z,3.60
2023-02-21T04:03:26.995Z,4.18
2023-02-21T04:06:00.087Z,3.00
2023-02-21T04:08:32.960Z,5.53
2023-02-21T04:11:07.745Z,4.88
2023-02-21T04:13:40.613Z,2.30
2023-02-21T04:16:13.547Z,2.17
2023-02-21T04:18:46.475Z,1.33
2023-02-21T04:21:19.851Z,1.58
2023-02-21T04:23:52.878Z,2.00
2023-02-21T04:26:30.007Z,2.75
2023-02-21T04:29:03.226Z,3.70
2023-02-21T04:31:36.456Z,2.25
2023-02-21T04:34:12.065Z,2.33
2023-02-21T04:36:45.537Z,1.80
2023-02-21T04:39:18.657Z,2.25
2023-02-21T04:41:52.930Z,2.65
2023-02-21T04:44:25.812Z,3.25
2023-02-21T04:46:58.717Z,1.55
2023-02-21T04:49:31.651Z,3.38
2023-02-21T04:52:04.747Z,2.45
2023-02-21T04:54:37.615Z,2.55
2023-02-21T04:57:11.855Z,2.20
2023-02-21T04:59:44.728Z,4.30
2023-02-21T05:02:17.813Z,2.30
2023-02-21T05:04:50.705Z,1.80
2023-02-21T05:07:23.631Z,2.58
2023-02-21T05:09:56.476Z,5.75
2023-02-21T05:12:31.671Z,3.05
2023-02-21T05:15:04.820Z,2.40
2023-02-21T05:17:37.695Z,2.13
2023-02-21T05:20:12.715Z,3.33
2023-02-21T05:22:45.694Z,2.78
2023-02-21T05:25:20.356Z,3.15
2023-02-21T05:27:55.191Z,1.85
2023-02-21T05:30:28.093Z,2.33
2023-02-21T05:33:01.044Z,4.35
2023-02-21T05:35:33.911Z,3.45
2023-02-21T05:38:06.833Z,3.33
2023-02-21T05:40:39.685Z,2.03
2023-02-21T05:43:14.010Z,1.58
2023-02-21T05:45:47.074Z,2.13
2023-02-21T05:48:20.308Z,3.70
2023-02-21T05:50:53.180Z,5.15
2023-02-21T05:53:26.313Z,3.15
2023-02-21T05:55:59.236Z,2.70
2023-02-21T05:58:33.923Z,2.70
2023-02-21T06:01:07.386Z,1.48
2023-02-21T06:03:40.632Z,5.82
2023-02-21T06:06:16.167Z,4.78
2023-02-21T06:08:50.810Z,4.05
2023-02-21T06:11:25.715Z,3.63
2023-02-21T06:14:03.589Z,2.95
2023-02-21T06:16:37.618Z,3.15
2023-02-21T06:19:12.710Z,2.30
2023-02-21T06:21:46.561Z,2.50
2023-02-21T06:24:19.479Z,3.03
2023-02-21T06:26:52.679Z,1.77
2023-02-21T06:29:27.001Z,2.65
2023-02-21T06:32:00.554Z,2.30
2023-02-21T06:34:33.620Z,3.35
2023-02-21T06:37:06.991Z,3.65
2023-02-21T06:39:40.336Z,2.15
2023-02-21T06:42:15.199Z,2.50
2023-02-21T06:44:50.796Z,2.55
2023-02-21T06:47:24.188Z,1.98
2023-02-21T06:49:57.153Z,2.78
2023-02-21T06:52:31.646Z,2.45
2023-02-21T06:55:04.962Z,2.63
2023-02-21T06:57:37.992Z,3.33
2023-02-21T07:00:14.667Z,2.30
2023-02-21T07:02:47.543Z,3.25
2023-02-21T07:05:20.987Z,2.97
2023-02-21T07:07:53.920Z,2.83
2023-02-21T07:10:26.785Z,3.70
2023-02-21T07:12:59.812Z,5.38
2023-02-21T07:15:34.232Z,2.85
2023-02-21T07:18:07.324Z,4.03
2023-02-21T07:20:40.243Z,4.15
2023-02-21T07:23:13.193Z,2.42
2023-02-21T07:25:46.090Z,4.43
2023-02-21T07:28:19.910Z,3.25
2023-02-21T07:30:54.407Z,2.92
2023-02-21T07:33:27.338Z,5.88
2023-02-21T07:36:00.259Z,2.50
2023-02-21T07:38:33.307Z,4.65
2023-02-21T07:41:06.523Z,2.10
2023-02-21T07:43:40.241Z,1.80
2023-02-21T07:46:16.114Z,2.28
2023-02-21T07:48:49.036Z,3.05
2023-02-21T07:51:22.006Z,3.38
2023-02-21T07:53:54.879Z,2.85
2023-02-21T07:56:27.810Z,3.08
2023-02-21T07:59:00.673Z,2.45
2023-02-21T08:01:34.996Z,1.85
2023-02-21T08:04:08.225Z,2.78
2023-02-21T08:06:41.117Z,2.13
2023-02-21T08:09:14.034Z,2.08
2023-02-21T08:11:46.917Z,2.88
2023-02-21T08:14:19.950Z,2.33
2023-02-21T08:16:54.222Z,3.63
2023-02-21T08:19:27.204Z,1.90
2023-02-21T08:22:00.107Z,3.83
2023-02-21T08:24:33.093Z,2.25
2023-02-21T08:27:06.117Z,3.00
2023-02-21T08:29:40.677Z,2.53
2023-02-21T08:32:15.068Z,2.97
2023-02-21T08:34:48.636Z,3.75
2023-02-21T08:37:21.515Z,1.70
2023-02-21T08:39:54.536Z,4.32
2023-02-21T08:42:27.660Z,2.22
2023-02-21T08:45:00.550Z,2.95
2023-02-21T08:47:37.054Z,3.90
2023-02-21T08:50:10.510Z,3.00
2023-02-21T08:52:43.376Z,5.13
2023-02-21T08:55:16.997Z,4.00
2023-02-21T08:57:50.544Z,4.28
2023-02-21T09:00:28.494Z,2.88
2023-02-21T09:03:03.044Z,4.60
2023-02-21T09:05:36.279Z,4.20
2023-02-21T09:08:10.427Z,4.90
2023-02-21T09:10:47.729Z,4.15
2023-02-21T09:13:20.913Z,3.45
2023-02-21T09:15:53.951Z,2.95
2023-02-21T09:18:29.016Z,5.15
2023-02-21T09:21:01.974Z,4.53
2023-02-21T09:23:35.214Z,7.63
2023-02-21T09:26:08.079Z,3.40
2023-02-21T09:28:43.827Z,4.13
2023-02-21T09:31:17.139Z,4.65
2023-02-21T09:33:51.772Z,3.95
2023-02-21T09:36:24.798Z,3.65
2023-02-21T09:38:59.130Z,6.65
2023-02-21T09:41:32.985Z,4.50
2023-02-21T09:44:08.487Z,6.00
2023-02-21T09:46:43.682Z,4.00
2023-02-21T09:49:25.219Z,7.85
2023-02-21T09:52:00.104Z,4.97
2023-02-21T09:54:35.125Z,5.88
2023-02-21T09:57:13.266Z,4.22
2023-02-21T09:59:46.966Z,6.05
2023-02-21T10:02:34.399Z,6.43
2023-02-21T10:05:23.491Z,10.02
2023-02-21T10:08:02.697Z,4.65
2023-02-21T10:10:44.561Z,7.68
2023-02-21T10:16:03.453Z,7.85
2023-02-21T10:18:42.619Z,7.40
2023-02-21T10:21:23.269Z,4.68
2023-02-21T10:23:58.068Z,5.60
2023-02-21T10:26:34.505Z,6.35
2023-02-21T10:29:16.539Z,9.38
2023-02-21T10:31:53.095Z,6.78
2023-02-21T10:34:28.433Z,6.88
2023-02-21T10:37:12.646Z,5.13
2023-02-21T10:39:50.688Z,3.40
2023-02-21T10:42:32.283Z,4.07
2023-02-21T10:45:08.410Z,8.15
2023-02-21T10:47:50.557Z,5.13
2023-02-21T10:50:42.497Z,9.23
2023-02-21T10:56:28.346Z,4.95
2023-02-21T10:59:05.516Z,7.93
2023-02-21T11:01:44.228Z,5.28
2023-02-21T11:04:30.437Z,11.57
2023-02-21T11:07:06.506Z,6.00
2023-02-21T11:09:43.354Z,7.38
2023-02-21T11:12:25.350Z,7.00
2023-02-21T11:15:19.569Z,7.57
2023-02-21T11:18:05.767Z,7.47
2023-02-21T11:20:38.754Z,7.07
2023-02-21T11:23:23.280Z,6.20
2023-02-21T11:26:09.339Z,7.38
2023-02-21T11:28:45.302Z,6.68
2023-02-21T11:31:24.380Z,6.63
2023-02-21T11:34:00.503Z,6.55
2023-02-21T11:36:35.290Z,6.78
2023-02-21T11:39:18.033Z,7.20
2023-02-21T11:41:53.454Z,4.88
2023-02-21T11:44:30.217Z,5.90
2023-02-21T11:47:14.131Z,6.43
2023-02-21T11:49:53.628Z,5.50
2023-02-21T11:52:30.673Z,7.25
2023-02-21T11:55:03.802Z,6.38
2023-02-21T11:57:50.023Z,7.97
2023-02-21T12:00:30.369Z,6.07
2023-02-21T12:03:19.913Z,6.03
2023-02-21T12:05:59.935Z,5.93
2023-02-21T12:08:48.806Z,6.43
2023-02-21T12:11:36.778Z,5.75
2023-02-21T12:14:26.176Z,6.05
2023-02-21T12:17:17.788Z,6.82
2023-02-21T12:20:18.709Z,6.13
2023-02-21T12:23:15.266Z,4.65
2023-02-21T12:25:59.845Z,6.82
2023-02-21T12:28:50.088Z,6.47
2023-02-21T12:31:38.189Z,4.50
2023-02-21T12:34:27.896Z,6.05
2023-02-21T12:37:20.973Z,8.55
2023-02-21T12:40:16.871Z,6.53
2023-02-21T12:43:20.983Z,5.72
2023-02-21T12:46:02.956Z,7.80
2023-02-21T12:48:42.524Z,8.20
2023-02-21T12:51:19.571Z,10.57
2023-02-21T12:53:57.513Z,7.15
2023-02-21T12:56:36.016Z,7.75
2023-02-21T12:59:17.036Z,6.47
2023-02-21T13:01:53.781Z,7.32
2023-02-21T13:04:37.135Z,6.20
2023-02-21T13:07:25.391Z,5.70
2023-02-21T13:10:05.548Z,6.65
2023-02-21T13:12:45.521Z,8.38
2023-02-21T13:15:22.983Z,4.75
2023-02-21T13:18:01.956Z,7.30
2023-02-21T13:20:39.547Z,7.25
2023-02-21T13:23:51.365Z,6.43
2023-02-21T13:29:17.305Z,4.70
2023-02-21T13:31:57.877Z,6.75
2023-02-21T13:34:38.280Z,6.38
2023-02-21T13:37:19.311Z,7.47
2023-02-21T13:39:54.276Z,5.63
2023-02-21T13:42:30.490Z,5.32
2023-02-21T13:45:16.336Z,6.38
2023-02-21T13:48:31.599Z,6.35
2023-02-21T13:51:05.082Z,5.80
2023-02-21T13:54:09.517Z,7.70
2023-02-21T13:56:44.122Z,8.63
2023-02-21T13:59:36.314Z,5.78
2023-02-21T14:02:22.746Z,8.18
2023-02-21T14:05:06.665Z,6.25
2023-02-21T14:07:49.169Z,7.13
2023-02-21T14:10:42.644Z,6.38
2023-02-21T14:13:25.820Z,6.70
2023-02-21T14:16:01.767Z,6.80
2023-02-21T14:18:46.781Z,6.97
2023-02-21T14:21:26.065Z,7.40
2023-02-21T14:24:01.806Z,7.15
2023-02-21T14:26:43.106Z,7.82
2023-02-21T14:29:32.722Z,6.03
2023-02-21T14:32:39.980Z,7.28
2023-02-21T14:35:25.881Z,6.15
2023-02-21T14:38:02.392Z,5.75
2023-02-21T14:40:48.935Z,5.95
2023-02-21T14:43:41.745Z,6.47
2023-02-21T14:46:58.853Z,6.60
2023-02-21T14:49:58.689Z,7.45
2023-02-21T14:53:05.760Z,7.30
2023-02-21T14:56:08.322Z,6.35
2023-02-21T14:59:37.965Z,6.32
2023-02-21T15:02:29.342Z,5.55
2023-02-21T15:05:12.229Z,8.60
2023-02-21T15:07:56.353Z,6.18
2023-02-21T15:10:31.711Z,6.65
2023-02-21T15:13:06.365Z,6.97
2023-02-21T15:15:42.306Z,8.75
2023-02-21T15:18:26.811Z,5.68
2023-02-21T15:21:06.218Z,6.32
2023-02-21T15:23:40.046Z,7.43
2023-02-21T15:26:22.013Z,6.30
2023-02-21T15:29:06.611Z,8.98
2023-02-21T15:31:42.367Z,6.68
2023-02-21T15:34:33.350Z,7.15
2023-02-21T15:37:14.759Z,5.53
2023-02-21T15:39:55.491Z,7.90
2023-02-21T15:42:30.023Z,6.90
2023-02-21T15:45:06.758Z,6.10
2023-02-21T15:47:40.021Z,5.63
2023-02-21T15:50:19.314Z,6.55
2023-02-21T15:52:53.583Z,7.88
2023-02-21T15:55:31.834Z,5.57
2023-02-21T15:58:16.571Z,5.95
2023-02-21T16:00:50.488Z,5.93
2023-02-21T16:03:32.957Z,5.95
2023-02-21T16:06:21.700Z,6.63
2023-02-21T16:09:03.939Z,8.10
2023-02-21T16:11:46.859Z,6.40
2023-02-21T16:14:24.479Z,5.78
2023-02-21T16:17:08.472Z,9.80
2023-02-21T16:19:43.345Z,6.88
2023-02-21T16:22:28.634Z,7.00
2023-02-21T16:25:24.743Z,7.70
2023-02-21T16:28:00.366Z,5.07
2023-02-21T16:30:35.587Z,6.45
2023-02-21T16:33:08.519Z,5.70
2023-02-21T16:35:42.062Z,7.03
2023-02-21T16:38:19.575Z,4.97
2023-02-21T16:40:53.095Z,6.10
2023-02-21T16:43:28.211Z,4.97
2023-02-21T16:46:01.131Z,6.90
2023-02-21T16:48:34.204Z,6.70
2023-02-21T16:51:14.096Z,6.30
2023-02-21T16:53:49.004Z,9.48
2023-02-21T16:56:22.084Z,7.75
2023-02-21T16:58:57.095Z,5.45
2023-02-21T17:01:33.692Z,5.75
2023-02-21T17:04:07.095Z,5.25
2023-02-21T17:06:39.982Z,5.22
2023-02-21T17:09:21.488Z,5.95
2023-02-21T17:11:54.660Z,7.72
2023-02-21T17:14:27.700Z,5.00
2023-02-21T17:17:00.780Z,5.47
2023-02-21T17:19:33.708Z,6.15
2023-02-21T17:22:06.599Z,5.72
2023-02-21T17:24:41.076Z,7.60
2023-02-21T17:27:14.155Z,6.47
2023-02-21T17:29:48.362Z,5.97
2023-02-21T17:32:21.273Z,6.57
2023-02-21T17:34:54.302Z,5.35
2023-02-21T17:37:27.490Z,4.78
2023-02-21T17:40:01.798Z,4.53
2023-02-21T17:42:34.702Z,5.95
2023-02-21T17:45:08.905Z,6.45
2023-02-21T17:47:41.936Z,8.57
2023-02-21T17:50:15.596Z,8.80
2023-02-21T17:52:48.624Z,7.95
2023-02-21T17:55:26.024Z,7.47
2023-02-21T17:57:58.978Z,7.07
2023-02-21T18:00:34.467Z,6.35
2023-02-21T18:03:09.345Z,9.43
2023-02-21T18:05:42.218Z,8.95
2023-02-21T18:08:15.577Z,7.75
2023-02-21T18:10:49.942Z,7.85
2023-02-21T18:13:24.491Z,9.48
2023-02-21T18:15:57.410Z,8.65
2023-02-21T18:18:30.267Z,9.48
2023-02-21T18:21:03.666Z,8.30
2023-02-21T18:23:37.908Z,8.90
2023-02-21T18:26:12.939Z,10.70
2023-02-21T18:28:45.844Z,8.68
2023-02-21T18:31:20.435Z,8.82
2023-02-21T18:33:53.579Z,8.35
2023-02-21T18:36:26.591Z,8.35
2023-02-21T18:38:59.460Z,12.18
2023-02-21T18:41:34.724Z,7.50
2023-02-21T18:44:07.595Z,11.48
2023-02-21T18:46:44.489Z,9.32
2023-02-21T18:49:17.422Z,10.88
2023-02-21T18:51:50.541Z,9.82
2023-02-21T18:54:23.400Z,9.63
2023-02-21T18:56:59.185Z,10.15
2023-02-21T18:59:32.282Z,11.95
2023-02-21T19:02:06.049Z,9.25
2023-02-21T19:04:39.016Z,11.40
2023-02-21T19:07:14.431Z,10.27
2023-02-21T19:09:50.178Z,11.27
2023-02-21T19:12:24.500Z,10.15
2023-02-21T19:14:57.387Z,9.25
2023-02-21T19:17:30.606Z,8.98
2023-02-21T19:20:08.761Z,10.40
2023-02-21T19:22:42.043Z,10.07
2023-02-21T19:25:16.893Z,12.15
2023-02-21T19:27:51.302Z,11.05
2023-02-21T19:30:24.237Z,10.23
2023-02-21T19:33:00.355Z,13.50
2023-02-21T19:35:34.688Z,10.85
2023-02-21T19:38:10.085Z,12.50
2023-02-21T19:40:43.200Z,14.00
2023-02-21T19:43:18.524Z,12.20
2023-02-21T19:45:52.733Z,10.13
2023-02-21T19:48:25.722Z,10.25
2023-02-21T19:50:58.767Z,10.48
2023-02-21T19:53:31.850Z,10.23
2023-02-21T19:56:05.125Z,9.63
2023-02-21T19:58:40.342Z,12.35
2023-02-21T20:01:13.508Z,13.80
2023-02-21T20:03:48.770Z,12.23
2023-02-21T20:06:24.709Z,10.48
2023-02-21T20:08:57.809Z,10.85
2023-02-21T20:11:30.679Z,10.90
2023-02-21T20:14:05.197Z,10.27
2023-02-21T20:16:41.644Z,9.52
2023-02-21T20:19:15.607Z,9.43
2023-02-21T20:21:48.497Z,9.77
2023-02-21T20:24:22.039Z,13.75
2023-02-21T20:26:55.647Z,12.15
2023-02-21T20:29:30.459Z,10.27
2023-02-21T20:32:03.946Z,10.65
2023-02-21T20:34:39.975Z,10.32
2023-02-21T20:37:14.438Z,11.95
2023-02-21T20:39:49.944Z,12.60
2023-02-21T20:42:24.844Z,13.77
2023-02-21T20:44:59.292Z,9.73
2023-02-21T20:47:32.255Z,10.30
2023-02-21T20:50:07.484Z,9.90
2023-02-21T20:52:41.564Z,8.93
2023-02-21T20:55:16.101Z,9.70
2023-02-21T20:57:49.751Z,8.57
2023-02-21T21:00:24.694Z,9.55
2023-02-21T21:02:57.595Z,10.05
2023-02-21T21:05:30.803Z,10.00
2023-02-21T21:08:03.697Z,9.77
2023-02-21T21:10:37.477Z,8.90
2023-02-21T21:13:10.334Z,7.55
2023-02-21T21:15:44.790Z,8.38
2023-02-21T21:18:17.724Z,9.70
2023-02-21T21:20:51.339Z,8.20
2023-02-21T21:23:25.966Z,6.65
2023-02-21T21:26:02.021Z,9.70
2023-02-21T21:28:34.975Z,9.55
2023-02-21T21:31:10.083Z,7.32
2023-02-21T21:33:43.048Z,10.25
2023-02-21T21:36:16.011Z,7.47
2023-02-21T21:38:48.881Z,11.18
2023-02-21T21:41:22.284Z,7.30
2023-02-21T21:43:55.138Z,6.25
2023-02-21T21:46:32.861Z,7.63
2023-02-21T21:49:06.481Z,9.98
2023-02-21T21:51:40.995Z,7.85
2023-02-21T21:54:14.886Z,9.77
2023-02-21T21:56:49.238Z,10.52
2023-02-21T21:59:23.949Z,9.20
2023-02-21T22:01:59.421Z,8.73
2023-02-21T22:04:32.358Z,7.57
2023-02-21T22:07:06.510Z,9.30
2023-02-21T22:09:40.450Z,7.80
2023-02-21T22:12:17.989Z,6.68
2023-02-21T22:14:50.940Z,6.82
2023-02-21T22:17:25.341Z,8.77
2023-02-21T22:19:58.178Z,7.85
2023-02-21T22:22:31.110Z,7.18
2023-02-21T22:25:04.433Z,7.00
2023-02-21T22:27:37.308Z,8.43
2023-02-21T22:30:13.767Z,10.57
2023-02-21T22:32:49.229Z,6.45
2023-02-21T22:35:22.185Z,7.28
2023-02-21T22:37:57.104Z,6.93
2023-02-21T22:40:34.994Z,8.02
2023-02-21T22:43:09.487Z,7.20
2023-02-21T22:45:49.577Z,7.53
2023-02-21T22:48:24.144Z,7.15
2023-02-21T22:50:57.023Z,7.47
2023-02-21T22:53:29.908Z,6.47
2023-02-21T22:56:04.159Z,6.50
2023-02-21T22:58:38.480Z,6.47
2023-02-21T23:01:11.355Z,7.38
2023-02-21T23:03:45.672Z,7.10
2023-02-21T23:06:18.559Z,7.32
2023-02-21T23:08:52.086Z,6.35
2023-02-21T23:11:25.058Z,7.40
2023-02-21T23:13:58.535Z,7.43
2023-02-21T23:16:31.539Z,6.80
2023-02-21T23:19:07.018Z,9.60
2023-02-21T23:21:45.879Z,5.85
2023-02-21T23:24:21.004Z,7.10
2023-02-21T23:26:54.872Z,8.48
2023-02-21T23:29:27.808Z,8.43
2023-02-21T23:32:10.059Z,6.72
2023-02-21T23:34:44.856Z,6.50
2023-02-21T23:37:17.743Z,7.35
2023-02-21T23:39:50.633Z,5.10
2023-02-21T23:42:23.903Z,6.38
2023-02-21T23:44:57.062Z,6.55
2023-02-21T23:47:31.810Z,5.45
2023-02-21T23:50:07.891Z,5.97
2023-02-21T23:52:40.821Z,7.50
2023-02-21T23:55:14.041Z,11.00
2023-02-21T23:57:48.213Z,7.30
